Terminal Aerodrome Forecast
Issued by NWS

Home | Current Version | Previous Version | Text Only | Print | Product List | Glossary On
Versions: 1 2 3 4 5 6 7 8 9 10 11 12 13 14 15 16 17 18 19
000
FTUS44 KTSA 231800 AAA
TAFMLC
TAF AMD
KMLC 231843Z 2319/2418 20012G19KT P6SM SCT250 PROB30 2406/2409 TS
      BKN050CB
     FM240900 16010KT P6SM BKN015 PROB30 2409/2412 TS BKN050CB
     FM241500 20011KT P6SM BKN025=

USA.gov is the U.S. government's official web portal to all federal, state and local government web resources and services.